sensor_id;sensor_type;location;lat;lon;timestamp;P1;durP1;ratioP1;P2;durP2;ratioP2
80392;SDS011;69719;45.544;10.218;2024-01-30T00:00:14;34.95;;;19.25;;
80392;SDS011;69719;45.544;10.218;2024-01-30T00:02:39;30.73;;;17.85;;
80392;SDS011;69719;45.544;10.218;2024-01-30T00:05:05;32.15;;;18.30;;
80392;SDS011;69719;45.544;10.218;2024-01-30T00:07:31;30.27;;;17.67;;
80392;SDS011;69719;45.544;10.218;2024-01-30T00:09:57;29.30;;;15.57;;
80392;SDS011;69719;45.544;10.218;2024-01-30T00:12:22;29.20;;;16.15;;
80392;SDS011;69719;45.544;10.218;2024-01-30T00:14:47;29.45;;;16.13;;
80392;SDS011;69719;45.544;10.218;2024-01-30T00:17:13;27.52;;;15.70;;
80392;SDS011;69719;45.544;10.218;2024-01-30T00:19:39;28.77;;;15.60;;
80392;SDS011;69719;45.544;10.218;2024-01-30T00:22:05;31.70;;;16.75;;
80392;SDS011;69719;45.544;10.218;2024-01-30T00:24:30;28.17;;;14.77;;
80392;SDS011;69719;45.544;10.218;2024-01-30T00:26:56;28.83;;;15.93;;
80392;SDS011;69719;45.544;10.218;2024-01-30T00:29:21;26.92;;;14.23;;
80392;SDS011;69719;45.544;10.218;2024-01-30T00:31:47;26.98;;;13.95;;
80392;SDS011;69719;45.544;10.218;2024-01-30T00:34:13;28.20;;;14.40;;
80392;SDS011;69719;45.544;10.218;2024-01-30T00:36:39;28.80;;;14.68;;
80392;SDS011;69719;45.544;10.218;2024-01-30T00:39:04;29.88;;;16.25;;
80392;SDS011;69719;45.544;10.218;2024-01-30T00:41:32;27.63;;;15.13;;
80392;SDS011;69719;45.544;10.218;2024-01-30T00:43:57;26.60;;;13.85;;
80392;SDS011;69719;45.544;10.218;2024-01-30T00:46:23;27.95;;;14.48;;
80392;SDS011;69719;45.544;10.218;2024-01-30T00:48:48;27.08;;;15.95;;
80392;SDS011;69719;45.544;10.218;2024-01-30T00:51:14;24.83;;;14.45;;
80392;SDS011;69719;45.544;10.218;2024-01-30T00:53:40;26.88;;;14.88;;
80392;SDS011;69719;45.544;10.218;2024-01-30T00:56:06;29.17;;;15.20;;
80392;SDS011;69719;45.544;10.218;2024-01-30T00:58:33;26.20;;;14.45;;
80392;SDS011;69719;45.544;10.218;2024-01-30T01:00:58;29.25;;;15.00;;
80392;SDS011;69719;45.544;10.218;2024-01-30T01:03:24;26.98;;;14.45;;
80392;SDS011;69719;45.544;10.218;2024-01-30T01:05:49;28.50;;;14.73;;
80392;SDS011;69719;45.544;10.218;2024-01-30T01:08:15;29.15;;;15.35;;
80392;SDS011;69719;45.544;10.218;2024-01-30T01:10:40;24.50;;;14.05;;
80392;SDS011;69719;45.544;10.218;2024-01-30T01:13:06;26.35;;;14.38;;
80392;SDS011;69719;45.544;10.218;2024-01-30T01:15:31;25.25;;;13.50;;
80392;SDS011;69719;45.544;10.218;2024-01-30T01:17:57;26.80;;;13.85;;
80392;SDS011;69719;45.544;10.218;2024-01-30T01:20:22;25.38;;;14.02;;
80392;SDS011;69719;45.544;10.218;2024-01-30T01:22:47;25.83;;;13.85;;
80392;SDS011;69719;45.544;10.218;2024-01-30T01:25:13;27.95;;;14.00;;
80392;SDS011;69719;45.544;10.218;2024-01-30T01:27:39;22.83;;;13.00;;
80392;SDS011;69719;45.544;10.218;2024-01-30T01:30:07;31.33;;;13.57;;
80392;SDS011;69719;45.544;10.218;2024-01-30T01:32:36;25.38;;;14.05;;
80392;SDS011;69719;45.544;10.218;2024-01-30T01:35:03;28.17;;;13.90;;
80392;SDS011;69719;45.544;10.218;2024-01-30T01:37:30;25.63;;;13.68;;
80392;SDS011;69719;45.544;10.218;2024-01-30T01:39:56;24.75;;;13.63;;
80392;SDS011;69719;45.544;10.218;2024-01-30T01:42:21;22.25;;;11.85;;
80392;SDS011;69719;45.544;10.218;2024-01-30T01:44:47;24.15;;;13.20;;
80392;SDS011;69719;45.544;10.218;2024-01-30T01:47:13;24.40;;;14.45;;
80392;SDS011;69719;45.544;10.218;2024-01-30T01:49:39;23.55;;;12.45;;
80392;SDS011;69719;45.544;10.218;2024-01-30T01:52:04;23.55;;;12.43;;
80392;SDS011;69719;45.544;10.218;2024-01-30T01:54:31;25.33;;;12.82;;
80392;SDS011;69719;45.544;10.218;2024-01-30T01:56:57;26.20;;;12.85;;
80392;SDS011;69719;45.544;10.218;2024-01-30T01:59:22;26.52;;;13.35;;
80392;SDS011;69719;45.544;10.218;2024-01-30T02:01:49;24.73;;;12.73;;
80392;SDS011;69719;45.544;10.218;2024-01-30T02:04:18;23.42;;;12.13;;
80392;SDS011;69719;45.544;10.218;2024-01-30T02:06:43;22.45;;;12.48;;
80392;SDS011;69719;45.544;10.218;2024-01-30T02:09:09;20.95;;;11.70;;
80392;SDS011;69719;45.544;10.218;2024-01-30T02:11:35;25.25;;;12.52;;
80392;SDS011;69719;45.544;10.218;2024-01-30T02:14:06;26.30;;;13.05;;
80392;SDS011;69719;45.544;10.218;2024-01-30T02:16:32;23.58;;;12.60;;
80392;SDS011;69719;45.544;10.218;2024-01-30T02:18:57;22.55;;;12.32;;
80392;SDS011;69719;45.544;10.218;2024-01-30T02:21:23;24.85;;;13.32;;
80392;SDS011;69719;45.544;10.218;2024-01-30T02:23:49;23.05;;;12.02;;
80392;SDS011;69719;45.544;10.218;2024-01-30T02:26:16;22.98;;;12.23;;
80392;SDS011;69719;45.544;10.218;2024-01-30T02:28:41;21.58;;;11.93;;
80392;SDS011;69719;45.544;10.218;2024-01-30T02:31:07;20.27;;;10.93;;
80392;SDS011;69719;45.544;10.218;2024-01-30T02:33:32;23.38;;;11.32;;
80392;SDS011;69719;45.544;10.218;2024-01-30T02:35:58;24.17;;;11.15;;
80392;SDS011;69719;45.544;10.218;2024-01-30T02:38:24;20.30;;;11.27;;
80392;SDS011;69719;45.544;10.218;2024-01-30T02:40:51;20.13;;;10.77;;
80392;SDS011;69719;45.544;10.218;2024-01-30T02:43:17;20.50;;;10.98;;
80392;SDS011;69719;45.544;10.218;2024-01-30T02:45:43;22.27;;;10.88;;
80392;SDS011;69719;45.544;10.218;2024-01-30T02:48:08;21.90;;;11.38;;
80392;SDS011;69719;45.544;10.218;2024-01-30T02:50:34;21.27;;;11.02;;
80392;SDS011;69719;45.544;10.218;2024-01-30T02:53:00;20.83;;;10.25;;
80392;SDS011;69719;45.544;10.218;2024-01-30T02:55:25;19.33;;;10.27;;
80392;SDS011;69719;45.544;10.218;2024-01-30T02:57:51;19.83;;;10.82;;
80392;SDS011;69719;45.544;10.218;2024-01-30T03:00:16;20.95;;;11.95;;
80392;SDS011;69719;45.544;10.218;2024-01-30T03:02:43;22.35;;;10.75;;
80392;SDS011;69719;45.544;10.218;2024-01-30T03:05:08;22.48;;;11.25;;
80392;SDS011;69719;45.544;10.218;2024-01-30T03:07:34;20.95;;;10.82;;
80392;SDS011;69719;45.544;10.218;2024-01-30T03:09:59;22.80;;;10.73;;
80392;SDS011;69719;45.544;10.218;2024-01-30T03:12:25;21.05;;;10.30;;
80392;SDS011;69719;45.544;10.218;2024-01-30T03:14:50;19.17;;;9.25;;
80392;SDS011;69719;45.544;10.218;2024-01-30T03:17:16;23.52;;;11.13;;
80392;SDS011;69719;45.544;10.218;2024-01-30T03:19:41;21.70;;;10.70;;
80392;SDS011;69719;45.544;10.218;2024-01-30T03:22:07;19.73;;;10.60;;
80392;SDS011;69719;45.544;10.218;2024-01-30T03:24:32;19.83;;;9.80;;
80392;SDS011;69719;45.544;10.218;2024-01-30T03:26:58;22.42;;;10.43;;
80392;SDS011;69719;45.544;10.218;2024-01-30T03:29:24;20.23;;;9.93;;
80392;SDS011;69719;45.544;10.218;2024-01-30T03:31:49;21.00;;;10.07;;
80392;SDS011;69719;45.544;10.218;2024-01-30T03:34:15;20.00;;;10.02;;
80392;SDS011;69719;45.544;10.218;2024-01-30T03:36:40;21.75;;;10.20;;
80392;SDS011;69719;45.544;10.218;2024-01-30T03:39:06;20.38;;;10.48;;
80392;SDS011;69719;45.544;10.218;2024-01-30T03:41:31;20.17;;;9.88;;
80392;SDS011;69719;45.544;10.218;2024-01-30T03:43:57;21.92;;;10.20;;
80392;SDS011;69719;45.544;10.218;2024-01-30T03:46:23;19.73;;;9.40;;
80392;SDS011;69719;45.544;10.218;2024-01-30T03:48:49;21.13;;;10.98;;
80392;SDS011;69719;45.544;10.218;2024-01-30T03:51:14;20.80;;;10.23;;
80392;SDS011;69719;45.544;10.218;2024-01-30T03:53:44;22.17;;;9.80;;
80392;SDS011;69719;45.544;10.218;2024-01-30T03:56:11;21.13;;;8.85;;
80392;SDS011;69719;45.544;10.218;2024-01-30T03:58:38;17.27;;;9.55;;
80392;SDS011;69719;45.544;10.218;2024-01-30T04:01:04;21.25;;;9.75;;
80392;SDS011;69719;45.544;10.218;2024-01-30T04:03:29;17.95;;;8.88;;
80392;SDS011;69719;45.544;10.218;2024-01-30T04:05:55;18.88;;;9.52;;
80392;SDS011;69719;45.544;10.218;2024-01-30T04:08:20;18.52;;;9.38;;
80392;SDS011;69719;45.544;10.218;2024-01-30T04:10:46;18.88;;;9.32;;
80392;SDS011;69719;45.544;10.218;2024-01-30T04:13:12;21.48;;;9.52;;
80392;SDS011;69719;45.544;10.218;2024-01-30T04:15:37;18.13;;;9.65;;
80392;SDS011;69719;45.544;10.218;2024-01-30T04:18:03;20.02;;;10.63;;
80392;SDS011;69719;45.544;10.218;2024-01-30T04:20:29;18.75;;;9.55;;
80392;SDS011;69719;45.544;10.218;2024-01-30T04:22:55;22.52;;;10.40;;
80392;SDS011;69719;45.544;10.218;2024-01-30T04:25:20;22.42;;;10.50;;
80392;SDS011;69719;45.544;10.218;2024-01-30T04:27:46;20.67;;;10.15;;
80392;SDS011;69719;45.544;10.218;2024-01-30T04:30:11;24.17;;;10.15;;
80392;SDS011;69719;45.544;10.218;2024-01-30T04:32:37;20.30;;;10.13;;
80392;SDS011;69719;45.544;10.218;2024-01-30T04:35:03;20.50;;;10.65;;
80392;SDS011;69719;45.544;10.218;2024-01-30T04:37:28;20.75;;;10.48;;
80392;SDS011;69719;45.544;10.218;2024-01-30T04:39:54;19.98;;;10.25;;
80392;SDS011;69719;45.544;10.218;2024-01-30T04:42:19;20.73;;;10.45;;
80392;SDS011;69719;45.544;10.218;2024-01-30T04:44:45;23.30;;;10.73;;
80392;SDS011;69719;45.544;10.218;2024-01-30T04:47:10;31.17;;;10.57;;
80392;SDS011;69719;45.544;10.218;2024-01-30T04:49:40;20.38;;;9.70;;
80392;SDS011;69719;45.544;10.218;2024-01-30T04:52:06;22.23;;;10.25;;
80392;SDS011;69719;45.544;10.218;2024-01-30T04:54:32;19.35;;;9.05;;
80392;SDS011;69719;45.544;10.218;2024-01-30T04:56:58;20.00;;;9.95;;
80392;SDS011;69719;45.544;10.218;2024-01-30T04:59:23;22.75;;;9.10;;
80392;SDS011;69719;45.544;10.218;2024-01-30T05:01:49;15.68;;;8.85;;
80392;SDS011;69719;45.544;10.218;2024-01-30T05:04:14;19.50;;;9.82;;
80392;SDS011;69719;45.544;10.218;2024-01-30T05:06:40;18.15;;;9.15;;
80392;SDS011;69719;45.544;10.218;2024-01-30T05:09:05;17.77;;;9.05;;
80392;SDS011;69719;45.544;10.218;2024-01-30T05:11:31;21.35;;;9.52;;
80392;SDS011;69719;45.544;10.218;2024-01-30T05:14:01;16.70;;;9.40;;
80392;SDS011;69719;45.544;10.218;2024-01-30T05:16:27;18.88;;;9.63;;
80392;SDS011;69719;45.544;10.218;2024-01-30T05:18:52;18.23;;;8.55;;
80392;SDS011;69719;45.544;10.218;2024-01-30T05:21:18;17.98;;;8.65;;
80392;SDS011;69719;45.544;10.218;2024-01-30T05:23:43;18.88;;;8.93;;
80392;SDS011;69719;45.544;10.218;2024-01-30T05:26:09;18.35;;;9.02;;
80392;SDS011;69719;45.544;10.218;2024-01-30T05:28:35;23.27;;;9.15;;
80392;SDS011;69719;45.544;10.218;2024-01-30T05:31:01;17.55;;;8.73;;
80392;SDS011;69719;45.544;10.218;2024-01-30T05:33:27;14.25;;;8.40;;
80392;SDS011;69719;45.544;10.218;2024-01-30T05:35:52;15.38;;;8.35;;
80392;SDS011;69719;45.544;10.218;2024-01-30T05:38:20;18.60;;;8.85;;
80392;SDS011;69719;45.544;10.218;2024-01-30T05:40:46;28.45;;;11.73;;
80392;SDS011;69719;45.544;10.218;2024-01-30T05:43:12;18.30;;;9.63;;
80392;SDS011;69719;45.544;10.218;2024-01-30T05:45:37;20.27;;;9.57;;
80392;SDS011;69719;45.544;10.218;2024-01-30T05:48:03;18.77;;;8.95;;
80392;SDS011;69719;45.544;10.218;2024-01-30T05:50:29;19.95;;;8.85;;
80392;SDS011;69719;45.544;10.218;2024-01-30T05:52:55;15.32;;;8.70;;
80392;SDS011;69719;45.544;10.218;2024-01-30T05:55:21;19.38;;;9.05;;
80392;SDS011;69719;45.544;10.218;2024-01-30T05:57:46;21.52;;;9.10;;
80392;SDS011;69719;45.544;10.218;2024-01-30T06:00:12;16.65;;;8.77;;
80392;SDS011;69719;45.544;10.218;2024-01-30T06:02:37;17.02;;;8.55;;
80392;SDS011;69719;45.544;10.218;2024-01-30T06:05:03;18.75;;;8.63;;
80392;SDS011;69719;45.544;10.218;2024-01-30T06:07:29;17.50;;;8.05;;
80392;SDS011;69719;45.544;10.218;2024-01-30T06:09:54;20.60;;;9.55;;
80392;SDS011;69719;45.544;10.218;2024-01-30T06:12:20;24.38;;;9.38;;
80392;SDS011;69719;45.544;10.218;2024-01-30T06:14:45;18.35;;;9.57;;
80392;SDS011;69719;45.544;10.218;2024-01-30T06:17:10;18.48;;;9.52;;
80392;SDS011;69719;45.544;10.218;2024-01-30T06:19:37;20.35;;;9.43;;
80392;SDS011;69719;45.544;10.218;2024-01-30T06:22:04;22.08;;;9.55;;
80392;SDS011;69719;45.544;10.218;2024-01-30T06:24:29;21.77;;;9.52;;
80392;SDS011;69719;45.544;10.218;2024-01-30T06:26:55;26.35;;;9.43;;
80392;SDS011;69719;45.544;10.218;2024-01-30T06:29:20;21.02;;;11.07;;
80392;SDS011;69719;45.544;10.218;2024-01-30T06:31:46;22.95;;;10.30;;
80392;SDS011;69719;45.544;10.218;2024-01-30T06:34:12;68.65;;;14.57;;
80392;SDS011;69719;45.544;10.218;2024-01-30T06:36:37;44.78;;;14.70;;
80392;SDS011;69719;45.544;10.218;2024-01-30T06:39:03;37.20;;;13.35;;
80392;SDS011;69719;45.544;10.218;2024-01-30T06:41:29;41.80;;;12.40;;
80392;SDS011;69719;45.544;10.218;2024-01-30T06:43:55;46.17;;;13.50;;
80392;SDS011;69719;45.544;10.218;2024-01-30T06:46:21;27.23;;;11.23;;
80392;SDS011;69719;45.544;10.218;2024-01-30T06:48:46;22.63;;;10.13;;
80392;SDS011;69719;45.544;10.218;2024-01-30T06:51:12;23.45;;;11.20;;
80392;SDS011;69719;45.544;10.218;2024-01-30T06:53:37;25.55;;;10.60;;
80392;SDS011;69719;45.544;10.218;2024-01-30T06:56:03;23.45;;;10.65;;
80392;SDS011;69719;45.544;10.218;2024-01-30T06:58:29;29.65;;;11.77;;
80392;SDS011;69719;45.544;10.218;2024-01-30T07:00:54;25.00;;;10.63;;
80392;SDS011;69719;45.544;10.218;2024-01-30T07:03:20;25.58;;;11.52;;
80392;SDS011;69719;45.544;10.218;2024-01-30T07:05:46;24.52;;;11.10;;
80392;SDS011;69719;45.544;10.218;2024-01-30T07:08:12;23.02;;;10.48;;
80392;SDS011;69719;45.544;10.218;2024-01-30T07:10:37;27.02;;;9.55;;
80392;SDS011;69719;45.544;10.218;2024-01-30T07:13:03;20.85;;;10.25;;
80392;SDS011;69719;45.544;10.218;2024-01-30T07:15:30;23.13;;;10.23;;
80392;SDS011;69719;45.544;10.218;2024-01-30T07:17:56;18.52;;;8.57;;
80392;SDS011;69719;45.544;10.218;2024-01-30T07:20:21;19.55;;;8.73;;
80392;SDS011;69719;45.544;10.218;2024-01-30T07:22:47;19.42;;;8.88;;
80392;SDS011;69719;45.544;10.218;2024-01-30T07:25:13;15.00;;;7.15;;
80392;SDS011;69719;45.544;10.218;2024-01-30T07:27:38;18.77;;;7.88;;
80392;SDS011;69719;45.544;10.218;2024-01-30T07:30:04;17.70;;;8.63;;
80392;SDS011;69719;45.544;10.218;2024-01-30T07:32:30;23.55;;;10.15;;
80392;SDS011;69719;45.544;10.218;2024-01-30T07:34:56;15.63;;;7.68;;
80392;SDS011;69719;45.544;10.218;2024-01-30T07:37:22;17.10;;;8.07;;
80392;SDS011;69719;45.544;10.218;2024-01-30T07:39:47;23.77;;;8.32;;
80392;SDS011;69719;45.544;10.218;2024-01-30T07:42:13;21.02;;;8.90;;
80392;SDS011;69719;45.544;10.218;2024-01-30T07:44:38;22.30;;;8.80;;
80392;SDS011;69719;45.544;10.218;2024-01-30T07:47:04;20.13;;;9.20;;
80392;SDS011;69719;45.544;10.218;2024-01-30T07:49:30;16.65;;;7.50;;
80392;SDS011;69719;45.544;10.218;2024-01-30T07:51:55;40.20;;;21.85;;
80392;SDS011;69719;45.544;10.218;2024-01-30T07:54:21;51.83;;;31.52;;
80392;SDS011;69719;45.544;10.218;2024-01-30T07:56:46;47.30;;;34.45;;
80392;SDS011;69719;45.544;10.218;2024-01-30T07:59:12;61.72;;;36.05;;
80392;SDS011;69719;45.544;10.218;2024-01-30T08:01:38;61.90;;;35.88;;
80392;SDS011;69719;45.544;10.218;2024-01-30T08:04:03;55.10;;;34.75;;
80392;SDS011;69719;45.544;10.218;2024-01-30T08:06:29;53.10;;;37.13;;
80392;SDS011;69719;45.544;10.218;2024-01-30T08:08:54;55.20;;;35.53;;
80392;SDS011;69719;45.544;10.218;2024-01-30T08:11:20;60.67;;;37.10;;
80392;SDS011;69719;45.544;10.218;2024-01-30T08:13:51;58.28;;;35.50;;
80392;SDS011;69719;45.544;10.218;2024-01-30T08:16:17;54.35;;;38.20;;
80392;SDS011;69719;45.544;10.218;2024-01-30T08:18:43;64.50;;;39.20;;
80392;SDS011;69719;45.544;10.218;2024-01-30T08:21:08;53.53;;;36.20;;
80392;SDS011;69719;45.544;10.218;2024-01-30T08:23:34;61.33;;;36.75;;
80392;SDS011;69719;45.544;10.218;2024-01-30T08:25:59;58.05;;;37.70;;
80392;SDS011;69719;45.544;10.218;2024-01-30T08:28:25;62.47;;;39.38;;
80392;SDS011;69719;45.544;10.218;2024-01-30T08:30:51;62.45;;;38.35;;
80392;SDS011;69719;45.544;10.218;2024-01-30T08:33:17;56.70;;;38.58;;
80392;SDS011;69719;45.544;10.218;2024-01-30T08:35:42;54.22;;;37.70;;
80392;SDS011;69719;45.544;10.218;2024-01-30T08:38:08;56.47;;;39.30;;
80392;SDS011;69719;45.544;10.218;2024-01-30T08:40:33;58.05;;;37.42;;
80392;SDS011;69719;45.544;10.218;2024-01-30T08:42:59;56.47;;;38.17;;
80392;SDS011;69719;45.544;10.218;2024-01-30T08:45:25;53.95;;;36.78;;
80392;SDS011;69719;45.544;10.218;2024-01-30T08:47:50;53.70;;;36.35;;
80392;SDS011;69719;45.544;10.218;2024-01-30T08:50:16;66.28;;;38.08;;
80392;SDS011;69719;45.544;10.218;2024-01-30T08:52:41;57.70;;;36.78;;
80392;SDS011;69719;45.544;10.218;2024-01-30T08:55:07;54.35;;;36.45;;
80392;SDS011;69719;45.544;10.218;2024-01-30T08:57:33;56.40;;;38.60;;
80392;SDS011;69719;45.544;10.218;2024-01-30T08:59:58;57.60;;;37.08;;
80392;SDS011;69719;45.544;10.218;2024-01-30T09:02:24;61.67;;;38.30;;
80392;SDS011;69719;45.544;10.218;2024-01-30T09:04:49;64.63;;;40.08;;
80392;SDS011;69719;45.544;10.218;2024-01-30T09:07:15;54.95;;;37.85;;
80392;SDS011;69719;45.544;10.218;2024-01-30T09:09:40;62.97;;;40.80;;
80392;SDS011;69719;45.544;10.218;2024-01-30T09:12:06;55.28;;;38.40;;
80392;SDS011;69719;45.544;10.218;2024-01-30T09:14:34;62.40;;;39.20;;
80392;SDS011;69719;45.544;10.218;2024-01-30T09:17:03;56.20;;;38.20;;
80392;SDS011;69719;45.544;10.218;2024-01-30T09:19:29;54.78;;;37.47;;
80392;SDS011;69719;45.544;10.218;2024-01-30T09:21:55;64.68;;;40.42;;
80392;SDS011;69719;45.544;10.218;2024-01-30T09:24:20;57.97;;;38.00;;
80392;SDS011;69719;45.544;10.218;2024-01-30T09:26:46;59.70;;;39.35;;
80392;SDS011;69719;45.544;10.218;2024-01-30T09:29:11;55.42;;;37.90;;
80392;SDS011;69719;45.544;10.218;2024-01-30T09:31:37;55.53;;;36.75;;
80392;SDS011;69719;45.544;10.218;2024-01-30T09:34:02;57.45;;;38.03;;
80392;SDS011;69719;45.544;10.218;2024-01-30T09:36:31;54.28;;;37.05;;
80392;SDS011;69719;45.544;10.218;2024-01-30T09:38:57;50.92;;;37.90;;
80392;SDS011;69719;45.544;10.218;2024-01-30T09:41:23;55.17;;;38.33;;
80392;SDS011;69719;45.544;10.218;2024-01-30T09:43:50;54.13;;;37.33;;
80392;SDS011;69719;45.544;10.218;2024-01-30T09:46:16;49.05;;;35.60;;
80392;SDS011;69719;45.544;10.218;2024-01-30T09:48:44;51.58;;;34.13;;
80392;SDS011;69719;45.544;10.218;2024-01-30T09:51:13;53.67;;;33.67;;
80392;SDS011;69719;45.544;10.218;2024-01-30T09:53:39;59.15;;;33.05;;
80392;SDS011;69719;45.544;10.218;2024-01-30T09:56:07;52.92;;;31.75;;
80392;SDS011;69719;45.544;10.218;2024-01-30T09:58:32;50.75;;;32.25;;
80392;SDS011;69719;45.544;10.218;2024-01-30T10:00:58;52.13;;;33.10;;
80392;SDS011;69719;45.544;10.218;2024-01-30T10:03:24;47.42;;;32.72;;
80392;SDS011;69719;45.544;10.218;2024-01-30T10:05:50;51.42;;;31.88;;
80392;SDS011;69719;45.544;10.218;2024-01-30T10:08:19;51.35;;;31.73;;
80392;SDS011;69719;45.544;10.218;2024-01-30T10:10:46;61.25;;;34.65;;
80392;SDS011;69719;45.544;10.218;2024-01-30T10:13:12;56.10;;;32.45;;
80392;SDS011;69719;45.544;10.218;2024-01-30T10:15:38;47.80;;;31.48;;
80392;SDS011;69719;45.544;10.218;2024-01-30T10:18:04;68.97;;;34.60;;
80392;SDS011;69719;45.544;10.218;2024-01-30T10:20:31;47.50;;;32.22;;
80392;SDS011;69719;45.544;10.218;2024-01-30T10:22:57;46.30;;;32.47;;
80392;SDS011;69719;45.544;10.218;2024-01-30T10:25:27;45.58;;;32.03;;
80392;SDS011;69719;45.544;10.218;2024-01-30T10:27:55;46.17;;;31.05;;
80392;SDS011;69719;45.544;10.218;2024-01-30T10:30:26;45.92;;;33.05;;
80392;SDS011;69719;45.544;10.218;2024-01-30T10:32:53;48.55;;;33.70;;
80392;SDS011;69719;45.544;10.218;2024-01-30T10:35:18;43.53;;;30.27;;
80392;SDS011;69719;45.544;10.218;2024-01-30T10:37:44;46.78;;;30.45;;
80392;SDS011;69719;45.544;10.218;2024-01-30T10:40:13;48.75;;;31.10;;
80392;SDS011;69719;45.544;10.218;2024-01-30T10:42:41;43.78;;;28.98;;
80392;SDS011;69719;45.544;10.218;2024-01-30T10:45:09;40.63;;;26.98;;
80392;SDS011;69719;45.544;10.218;2024-01-30T10:47:54;41.50;;;23.92;;
80392;SDS011;69719;45.544;10.218;2024-01-30T10:50:26;42.33;;;24.27;;
80392;SDS011;69719;45.544;10.218;2024-01-30T10:52:53;41.45;;;28.58;;
80392;SDS011;69719;45.544;10.218;2024-01-30T10:55:20;39.28;;;26.33;;
80392;SDS011;69719;45.544;10.218;2024-01-30T10:57:47;44.00;;;28.92;;
80392;SDS011;69719;45.544;10.218;2024-01-30T11:00:14;41.08;;;26.00;;
80392;SDS011;69719;45.544;10.218;2024-01-30T11:02:48;37.85;;;24.02;;
80392;SDS011;69719;45.544;10.218;2024-01-30T11:05:14;37.95;;;23.55;;
80392;SDS011;69719;45.544;10.218;2024-01-30T11:07:50;45.22;;;26.17;;
80392;SDS011;69719;45.544;10.218;2024-01-30T11:10:15;46.50;;;27.25;;
80392;SDS011;69719;45.544;10.218;2024-01-30T11:12:41;37.85;;;23.42;;
80392;SDS011;69719;45.544;10.218;2024-01-30T11:15:15;37.47;;;23.30;;
80392;SDS011;69719;45.544;10.218;2024-01-30T11:17:45;38.20;;;23.02;;
80392;SDS011;69719;45.544;10.218;2024-01-30T11:20:22;38.28;;;22.70;;
80392;SDS011;69719;45.544;10.218;2024-01-30T11:22:51;37.97;;;22.58;;
80392;SDS011;69719;45.544;10.218;2024-01-30T11:25:19;42.28;;;22.90;;
80392;SDS011;69719;45.544;10.218;2024-01-30T11:27:46;35.60;;;20.98;;
80392;SDS011;69719;45.544;10.218;2024-01-30T11:35:31;36.10;;;24.77;;
80392;SDS011;69719;45.544;10.218;2024-01-30T11:37:58;37.10;;;23.63;;
80392;SDS011;69719;45.544;10.218;2024-01-30T11:40:27;39.00;;;22.92;;
80392;SDS011;69719;45.544;10.218;2024-01-30T11:42:54;39.30;;;25.48;;
80392;SDS011;69719;45.544;10.218;2024-01-30T11:45:20;37.33;;;23.90;;
80392;SDS011;69719;45.544;10.218;2024-01-30T11:47:48;47.53;;;25.73;;
80392;SDS011;69719;45.544;10.218;2024-01-30T11:50:14;38.15;;;25.63;;
80392;SDS011;69719;45.544;10.218;2024-01-30T11:52:40;45.92;;;27.20;;
80392;SDS011;69719;45.544;10.218;2024-01-30T11:55:06;41.40;;;27.08;;
80392;SDS011;69719;45.544;10.218;2024-01-30T11:57:33;42.35;;;28.90;;
80392;SDS011;69719;45.544;10.218;2024-01-30T12:00:01;49.97;;;29.70;;
80392;SDS011;69719;45.544;10.218;2024-01-30T12:02:28;42.28;;;27.08;;
80392;SDS011;69719;45.544;10.218;2024-01-30T12:04:54;44.97;;;28.25;;
80392;SDS011;69719;45.544;10.218;2024-01-30T12:07:19;39.35;;;26.75;;
80392;SDS011;69719;45.544;10.218;2024-01-30T12:09:52;46.92;;;29.50;;
80392;SDS011;69719;45.544;10.218;2024-01-30T12:12:23;44.08;;;26.30;;
80392;SDS011;69719;45.544;10.218;2024-01-30T12:14:50;44.17;;;26.45;;
80392;SDS011;69719;45.544;10.218;2024-01-30T12:17:37;41.53;;;28.60;;
80392;SDS011;69719;45.544;10.218;2024-01-30T12:20:03;44.67;;;27.30;;
80392;SDS011;69719;45.544;10.218;2024-01-30T12:22:50;45.47;;;26.58;;
80392;SDS011;69719;45.544;10.218;2024-01-30T12:25:17;41.10;;;26.55;;
80392;SDS011;69719;45.544;10.218;2024-01-30T12:27:46;42.72;;;25.75;;
80392;SDS011;69719;45.544;10.218;2024-01-30T12:30:15;38.85;;;26.23;;
80392;SDS011;69719;45.544;10.218;2024-01-30T12:32:41;36.28;;;24.15;;
80392;SDS011;69719;45.544;10.218;2024-01-30T12:35:18;40.22;;;24.88;;
80392;SDS011;69719;45.544;10.218;2024-01-30T12:37:45;38.45;;;23.55;;
80392;SDS011;69719;45.544;10.218;2024-01-30T12:40:12;39.10;;;24.25;;
80392;SDS011;69719;45.544;10.218;2024-01-30T12:42:43;36.50;;;22.67;;
80392;SDS011;69719;45.544;10.218;2024-01-30T12:45:16;35.88;;;22.90;;
80392;SDS011;69719;45.544;10.218;2024-01-30T12:47:46;41.90;;;22.90;;
80392;SDS011;69719;45.544;10.218;2024-01-30T12:50:12;35.80;;;21.73;;
80392;SDS011;69719;45.544;10.218;2024-01-30T12:52:40;40.65;;;24.08;;
80392;SDS011;69719;45.544;10.218;2024-01-30T12:55:06;38.53;;;22.63;;
80392;SDS011;69719;45.544;10.218;2024-01-30T12:57:32;35.90;;;21.58;;
80392;SDS011;69719;45.544;10.218;2024-01-30T12:59:57;42.22;;;23.13;;
80392;SDS011;69719;45.544;10.218;2024-01-30T13:02:23;44.47;;;24.98;;
80392;SDS011;69719;45.544;10.218;2024-01-30T13:04:49;44.72;;;24.75;;
80392;SDS011;69719;45.544;10.218;2024-01-30T13:07:14;46.78;;;26.35;;
80392;SDS011;69719;45.544;10.218;2024-01-30T13:09:40;39.67;;;25.58;;
80392;SDS011;69719;45.544;10.218;2024-01-30T13:12:06;46.80;;;27.38;;
80392;SDS011;69719;45.544;10.218;2024-01-30T13:14:32;40.42;;;25.30;;
80392;SDS011;69719;45.544;10.218;2024-01-30T13:16:57;51.92;;;25.48;;
80392;SDS011;69719;45.544;10.218;2024-01-30T13:19:23;37.88;;;25.27;;
80392;SDS011;69719;45.544;10.218;2024-01-30T13:21:48;36.28;;;23.50;;
80392;SDS011;69719;45.544;10.218;2024-01-30T13:24:14;37.30;;;24.20;;
80392;SDS011;69719;45.544;10.218;2024-01-30T13:26:40;38.45;;;25.58;;
80392;SDS011;69719;45.544;10.218;2024-01-30T13:29:07;42.05;;;25.02;;
80392;SDS011;69719;45.544;10.218;2024-01-30T13:31:33;42.78;;;26.67;;
80392;SDS011;69719;45.544;10.218;2024-01-30T13:33:59;46.88;;;27.75;;
80392;SDS011;69719;45.544;10.218;2024-01-30T13:36:25;43.40;;;27.10;;
80392;SDS011;69719;45.544;10.218;2024-01-30T13:38:50;40.65;;;28.35;;
80392;SDS011;69719;45.544;10.218;2024-01-30T13:41:16;48.08;;;31.33;;
80392;SDS011;69719;45.544;10.218;2024-01-30T13:43:43;46.83;;;31.48;;
80392;SDS011;69719;45.544;10.218;2024-01-30T13:46:09;49.08;;;31.25;;
80392;SDS011;69719;45.544;10.218;2024-01-30T13:48:35;47.42;;;32.47;;
80392;SDS011;69719;45.544;10.218;2024-01-30T13:51:00;45.80;;;31.00;;
80392;SDS011;69719;45.544;10.218;2024-01-30T13:53:26;44.92;;;31.23;;
80392;SDS011;69719;45.544;10.218;2024-01-30T13:55:51;45.33;;;31.58;;
80392;SDS011;69719;45.544;10.218;2024-01-30T13:58:17;48.08;;;30.95;;
80392;SDS011;69719;45.544;10.218;2024-01-30T14:00:43;43.65;;;31.30;;
80392;SDS011;69719;45.544;10.218;2024-01-30T14:03:09;46.45;;;32.10;;
80392;SDS011;69719;45.544;10.218;2024-01-30T14:05:34;51.85;;;34.67;;
80392;SDS011;69719;45.544;10.218;2024-01-30T14:08:00;62.38;;;42.30;;
80392;SDS011;69719;45.544;10.218;2024-01-30T14:10:26;43.33;;;30.90;;